sensor_id;sensor_type;location;lat;lon;timestamp;temperature;humidity
77985;DHT22;67177;47.240;-1.546;2023-05-07T00:02:21;15.80;78.90
77985;DHT22;67177;47.240;-1.546;2023-05-07T00:04:48;15.80;78.90
77985;DHT22;67177;47.240;-1.546;2023-05-07T00:07:14;15.80;78.80
77985;DHT22;67177;47.240;-1.546;2023-05-07T00:09:40;15.80;78.90
77985;DHT22;67177;47.240;-1.546;2023-05-07T00:12:06;15.80;78.90
77985;DHT22;67177;47.240;-1.546;2023-05-07T00:14:31;15.80;78.80
77985;DHT22;67177;47.240;-1.546;2023-05-07T00:16:57;15.80;78.90
77985;DHT22;67177;47.240;-1.546;2023-05-07T00:19:23;15.80;78.90
77985;DHT22;67177;47.240;-1.546;2023-05-07T00:21:48;15.80;78.90
77985;DHT22;67177;47.240;-1.546;2023-05-07T00:24:14;15.80;78.90
77985;DHT22;67177;47.240;-1.546;2023-05-07T00:26:40;15.80;78.90
77985;DHT22;67177;47.240;-1.546;2023-05-07T00:29:06;15.80;78.90
77985;DHT22;67177;47.240;-1.546;2023-05-07T00:31:31;15.80;78.80
77985;DHT22;67177;47.240;-1.546;2023-05-07T00:33:57;15.80;78.90
77985;DHT22;67177;47.240;-1.546;2023-05-07T00:36:23;15.80;78.70
77985;DHT22;67177;47.240;-1.546;2023-05-07T00:38:48;15.90;78.70
77985;DHT22;67177;47.240;-1.546;2023-05-07T00:41:14;15.80;78.80
77985;DHT22;67177;47.240;-1.546;2023-05-07T00:43:40;15.80;78.80
77985;DHT22;67177;47.240;-1.546;2023-05-07T00:46:06;15.90;78.90
77985;DHT22;67177;47.240;-1.546;2023-05-07T00:48:31;15.90;78.90
77985;DHT22;67177;47.240;-1.546;2023-05-07T00:50:57;15.80;79.00
77985;DHT22;67177;47.240;-1.546;2023-05-07T00:53:23;15.80;79.10
77985;DHT22;67177;47.240;-1.546;2023-05-07T00:55:49;15.80;79.20
77985;DHT22;67177;47.240;-1.546;2023-05-07T00:58:15;15.80;79.20
77985;DHT22;67177;47.240;-1.546;2023-05-07T01:00:41;15.80;79.40
77985;DHT22;67177;47.240;-1.546;2023-05-07T01:03:06;15.80;79.40
77985;DHT22;67177;47.240;-1.546;2023-05-07T01:05:32;15.80;79.30
77985;DHT22;67177;47.240;-1.546;2023-05-07T01:07:58;15.80;79.30
77985;DHT22;67177;47.240;-1.546;2023-05-07T01:10:25;15.80;79.30
77985;DHT22;67177;47.240;-1.546;2023-05-07T01:12:51;15.80;79.40
77985;DHT22;67177;47.240;-1.546;2023-05-07T01:15:17;15.80;79.40
77985;DHT22;67177;47.240;-1.546;2023-05-07T01:17:44;15.80;79.40
77985;DHT22;67177;47.240;-1.546;2023-05-07T01:20:10;15.80;79.50
77985;DHT22;67177;47.240;-1.546;2023-05-07T01:22:39;15.80;79.60
77985;DHT22;67177;47.240;-1.546;2023-05-07T01:25:06;15.80;79.70
77985;DHT22;67177;47.240;-1.546;2023-05-07T01:27:32;15.80;79.80
77985;DHT22;67177;47.240;-1.546;2023-05-07T01:30:03;15.80;79.80
77985;DHT22;67177;47.240;-1.546;2023-05-07T01:35:18;15.80;79.80
77985;DHT22;67177;47.240;-1.546;2023-05-07T01:37:45;15.80;79.80
77985;DHT22;67177;47.240;-1.546;2023-05-07T01:40:11;15.80;79.90
77985;DHT22;67177;47.240;-1.546;2023-05-07T01:42:37;15.80;79.90
77985;DHT22;67177;47.240;-1.546;2023-05-07T01:45:03;15.80;79.90
77985;DHT22;67177;47.240;-1.546;2023-05-07T01:47:29;15.80;79.90
77985;DHT22;67177;47.240;-1.546;2023-05-07T01:49:56;15.80;79.90
77985;DHT22;67177;47.240;-1.546;2023-05-07T01:52:22;15.80;80.00
77985;DHT22;67177;47.240;-1.546;2023-05-07T01:54:48;15.80;80.00
77985;DHT22;67177;47.240;-1.546;2023-05-07T01:57:13;15.80;80.10
77985;DHT22;67177;47.240;-1.546;2023-05-07T01:59:39;15.80;80.00
77985;DHT22;67177;47.240;-1.546;2023-05-07T02:02:05;15.80;80.10
77985;DHT22;67177;47.240;-1.546;2023-05-07T02:04:30;15.80;80.20
77985;DHT22;67177;47.240;-1.546;2023-05-07T02:06:56;15.80;80.20
77985;DHT22;67177;47.240;-1.546;2023-05-07T02:09:21;15.80;80.20
77985;DHT22;67177;47.240;-1.546;2023-05-07T02:11:48;15.80;80.30
77985;DHT22;67177;47.240;-1.546;2023-05-07T02:14:14;15.80;80.30
77985;DHT22;67177;47.240;-1.546;2023-05-07T02:16:40;15.80;80.20
77985;DHT22;67177;47.240;-1.546;2023-05-07T02:19:05;15.80;80.40
77985;DHT22;67177;47.240;-1.546;2023-05-07T02:21:31;15.80;80.30
77985;DHT22;67177;47.240;-1.546;2023-05-07T02:23:57;15.80;80.30
77985;DHT22;67177;47.240;-1.546;2023-05-07T02:26:22;15.80;80.20
77985;DHT22;67177;47.240;-1.546;2023-05-07T02:28:48;15.80;80.30
77985;DHT22;67177;47.240;-1.546;2023-05-07T02:31:13;15.70;80.20
77985;DHT22;67177;47.240;-1.546;2023-05-07T02:33:39;15.70;80.30
77985;DHT22;67177;47.240;-1.546;2023-05-07T02:36:06;15.70;80.30
77985;DHT22;67177;47.240;-1.546;2023-05-07T02:38:33;15.70;80.30
77985;DHT22;67177;47.240;-1.546;2023-05-07T02:40:58;15.70;80.50
77985;DHT22;67177;47.240;-1.546;2023-05-07T02:43:24;15.70;80.50
77985;DHT22;67177;47.240;-1.546;2023-05-07T02:46:00;15.70;80.50
77985;DHT22;67177;47.240;-1.546;2023-05-07T02:48:27;15.60;80.60
77985;DHT22;67177;47.240;-1.546;2023-05-07T02:50:52;15.60;80.60
77985;DHT22;67177;47.240;-1.546;2023-05-07T02:53:18;15.60;80.70
77985;DHT22;67177;47.240;-1.546;2023-05-07T02:55:44;15.60;80.70
77985;DHT22;67177;47.240;-1.546;2023-05-07T02:58:09;15.60;80.70
77985;DHT22;67177;47.240;-1.546;2023-05-07T03:00:35;15.60;80.70
77985;DHT22;67177;47.240;-1.546;2023-05-07T03:03:01;15.60;80.70
77985;DHT22;67177;47.240;-1.546;2023-05-07T03:05:26;15.60;80.60
77985;DHT22;67177;47.240;-1.546;2023-05-07T03:07:52;15.60;80.60
77985;DHT22;67177;47.240;-1.546;2023-05-07T03:10:17;15.60;80.70
77985;DHT22;67177;47.240;-1.546;2023-05-07T03:12:44;15.60;80.70
77985;DHT22;67177;47.240;-1.546;2023-05-07T03:15:10;15.60;80.70
77985;DHT22;67177;47.240;-1.546;2023-05-07T03:17:38;15.60;80.70
77985;DHT22;67177;47.240;-1.546;2023-05-07T03:20:04;15.60;80.80
77985;DHT22;67177;47.240;-1.546;2023-05-07T03:22:30;15.60;80.90
77985;DHT22;67177;47.240;-1.546;2023-05-07T03:24:55;15.60;81.00
77985;DHT22;67177;47.240;-1.546;2023-05-07T03:27:21;15.60;81.00
77985;DHT22;67177;47.240;-1.546;2023-05-07T03:29:47;15.60;81.00
77985;DHT22;67177;47.240;-1.546;2023-05-07T03:32:13;15.60;81.00
77985;DHT22;67177;47.240;-1.546;2023-05-07T03:34:38;15.60;81.10
77985;DHT22;67177;47.240;-1.546;2023-05-07T03:37:04;15.50;81.10
77985;DHT22;67177;47.240;-1.546;2023-05-07T03:39:30;15.50;81.10
77985;DHT22;67177;47.240;-1.546;2023-05-07T03:41:56;15.50;81.10
77985;DHT22;67177;47.240;-1.546;2023-05-07T03:44:22;15.40;81.30
77985;DHT22;67177;47.240;-1.546;2023-05-07T03:46:47;15.40;81.20
77985;DHT22;67177;47.240;-1.546;2023-05-07T03:49:13;15.40;81.30
77985;DHT22;67177;47.240;-1.546;2023-05-07T03:51:38;15.40;81.20
77985;DHT22;67177;47.240;-1.546;2023-05-07T03:54:04;15.40;81.20
77985;DHT22;67177;47.240;-1.546;2023-05-07T03:56:30;15.40;81.20
77985;DHT22;67177;47.240;-1.546;2023-05-07T03:58:56;15.40;81.30
77985;DHT22;67177;47.240;-1.546;2023-05-07T04:01:22;15.40;81.30
77985;DHT22;67177;47.240;-1.546;2023-05-07T04:03:47;15.40;81.20
77985;DHT22;67177;47.240;-1.546;2023-05-07T04:06:13;15.40;81.20
77985;DHT22;67177;47.240;-1.546;2023-05-07T04:08:39;15.40;81.20
77985;DHT22;67177;47.240;-1.546;2023-05-07T04:11:04;15.40;81.30
77985;DHT22;67177;47.240;-1.546;2023-05-07T04:13:30;15.40;81.40
77985;DHT22;67177;47.240;-1.546;2023-05-07T04:15:56;15.40;81.50
77985;DHT22;67177;47.240;-1.546;2023-05-07T04:18:22;15.40;81.40
77985;DHT22;67177;47.240;-1.546;2023-05-07T04:20:48;15.40;81.30
77985;DHT22;67177;47.240;-1.546;2023-05-07T04:23:17;15.40;81.40
77985;DHT22;67177;47.240;-1.546;2023-05-07T04:25:42;15.40;81.40
77985;DHT22;67177;47.240;-1.546;2023-05-07T04:28:08;15.30;81.40
77985;DHT22;67177;47.240;-1.546;2023-05-07T04:30:33;15.30;81.50
77985;DHT22;67177;47.240;-1.546;2023-05-07T04:32:59;15.40;81.40
77985;DHT22;67177;47.240;-1.546;2023-05-07T04:35:25;15.40;81.40
77985;DHT22;67177;47.240;-1.546;2023-05-07T04:37:51;15.40;81.30
77985;DHT22;67177;47.240;-1.546;2023-05-07T04:40:16;15.30;81.30
77985;DHT22;67177;47.240;-1.546;2023-05-07T04:42:42;15.40;81.30
77985;DHT22;67177;47.240;-1.546;2023-05-07T04:45:08;15.30;81.30
77985;DHT22;67177;47.240;-1.546;2023-05-07T04:47:35;15.40;81.40
77985;DHT22;67177;47.240;-1.546;2023-05-07T04:50:01;15.30;81.40
77985;DHT22;67177;47.240;-1.546;2023-05-07T04:52:27;15.40;81.30
77985;DHT22;67177;47.240;-1.546;2023-05-07T04:54:52;15.40;81.40
77985;DHT22;67177;47.240;-1.546;2023-05-07T04:57:18;15.40;81.40
77985;DHT22;67177;47.240;-1.546;2023-05-07T04:59:44;15.40;81.40
77985;DHT22;67177;47.240;-1.546;2023-05-07T05:02:10;15.40;81.30
77985;DHT22;67177;47.240;-1.546;2023-05-07T05:04:36;15.40;81.20
77985;DHT22;67177;47.240;-1.546;2023-05-07T05:07:02;15.40;81.20
77985;DHT22;67177;47.240;-1.546;2023-05-07T05:09:31;15.40;81.30
77985;DHT22;67177;47.240;-1.546;2023-05-07T05:11:57;15.40;81.30
77985;DHT22;67177;47.240;-1.546;2023-05-07T05:14:22;15.40;81.30
77985;DHT22;67177;47.240;-1.546;2023-05-07T05:16:48;15.40;81.30
77985;DHT22;67177;47.240;-1.546;2023-05-07T05:19:14;15.40;81.30
77985;DHT22;67177;47.240;-1.546;2023-05-07T05:21:39;15.40;81.30
77985;DHT22;67177;47.240;-1.546;2023-05-07T05:24:05;15.40;81.30
77985;DHT22;67177;47.240;-1.546;2023-05-07T05:26:31;15.40;81.30
77985;DHT22;67177;47.240;-1.546;2023-05-07T05:28:57;15.40;81.30
77985;DHT22;67177;47.240;-1.546;2023-05-07T05:31:22;15.50;81.20
77985;DHT22;67177;47.240;-1.546;2023-05-07T05:33:48;15.50;81.10
77985;DHT22;67177;47.240;-1.546;2023-05-07T05:36:14;15.50;81.20
77985;DHT22;67177;47.240;-1.546;2023-05-07T05:38:40;15.50;81.00
77985;DHT22;67177;47.240;-1.546;2023-05-07T05:41:05;15.60;81.00
77985;DHT22;67177;47.240;-1.546;2023-05-07T05:43:31;15.60;81.00
77985;DHT22;67177;47.240;-1.546;2023-05-07T05:45:57;15.60;80.90
77985;DHT22;67177;47.240;-1.546;2023-05-07T05:48:23;15.60;80.90
77985;DHT22;67177;47.240;-1.546;2023-05-07T05:50:49;15.60;80.90
77985;DHT22;67177;47.240;-1.546;2023-05-07T05:53:15;15.60;80.80
77985;DHT22;67177;47.240;-1.546;2023-05-07T05:55:41;15.60;80.80
77985;DHT22;67177;47.240;-1.546;2023-05-07T05:58:07;15.60;80.70
77985;DHT22;67177;47.240;-1.546;2023-05-07T06:00:33;15.60;80.40
77985;DHT22;67177;47.240;-1.546;2023-05-07T06:02:58;15.70;80.20
77985;DHT22;67177;47.240;-1.546;2023-05-07T06:05:24;15.70;80.10
77985;DHT22;67177;47.240;-1.546;2023-05-07T06:07:50;15.70;80.20
77985;DHT22;67177;47.240;-1.546;2023-05-07T06:10:15;15.70;80.20
77985;DHT22;67177;47.240;-1.546;2023-05-07T06:12:41;15.80;79.90
77985;DHT22;67177;47.240;-1.546;2023-05-07T06:15:07;15.80;79.50
77985;DHT22;67177;47.240;-1.546;2023-05-07T06:17:32;15.80;79.50
77985;DHT22;67177;47.240;-1.546;2023-05-07T06:19:58;15.80;79.30
77985;DHT22;67177;47.240;-1.546;2023-05-07T06:22:24;15.80;79.20
77985;DHT22;67177;47.240;-1.546;2023-05-07T06:24:49;15.90;79.20
77985;DHT22;67177;47.240;-1.546;2023-05-07T06:27:15;15.90;79.20
77985;DHT22;67177;47.240;-1.546;2023-05-07T06:29:40;16.00;79.30
77985;DHT22;67177;47.240;-1.546;2023-05-07T06:32:11;16.00;79.20
77985;DHT22;67177;47.240;-1.546;2023-05-07T06:34:37;16.10;79.20
77985;DHT22;67177;47.240;-1.546;2023-05-07T06:37:03;16.10;79.10
77985;DHT22;67177;47.240;-1.546;2023-05-07T06:39:28;16.20;78.90
77985;DHT22;67177;47.240;-1.546;2023-05-07T06:41:54;16.40;78.50
77985;DHT22;67177;47.240;-1.546;2023-05-07T06:44:20;16.70;78.00
77985;DHT22;67177;47.240;-1.546;2023-05-07T06:46:45;16.90;77.50
77985;DHT22;67177;47.240;-1.546;2023-05-07T06:49:14;17.10;77.30
77985;DHT22;67177;47.240;-1.546;2023-05-07T06:51:40;17.30;77.10
77985;DHT22;67177;47.240;-1.546;2023-05-07T06:54:06;17.30;77.00
77985;DHT22;67177;47.240;-1.546;2023-05-07T06:56:33;17.20;77.00
77985;DHT22;67177;47.240;-1.546;2023-05-07T06:59:00;17.30;77.10
77985;DHT22;67177;47.240;-1.546;2023-05-07T07:01:26;17.30;76.70
77985;DHT22;67177;47.240;-1.546;2023-05-07T07:03:51;17.40;76.10
77985;DHT22;67177;47.240;-1.546;2023-05-07T07:06:17;17.60;75.80
77985;DHT22;67177;47.240;-1.546;2023-05-07T07:08:43;17.70;75.40
77985;DHT22;67177;47.240;-1.546;2023-05-07T07:11:09;17.90;75.10
77985;DHT22;67177;47.240;-1.546;2023-05-07T07:13:35;17.90;75.00
77985;DHT22;67177;47.240;-1.546;2023-05-07T07:16:01;17.80;74.90
77985;DHT22;67177;47.240;-1.546;2023-05-07T07:18:27;17.60;75.20
77985;DHT22;67177;47.240;-1.546;2023-05-07T07:20:53;17.50;75.50
77985;DHT22;67177;47.240;-1.546;2023-05-07T07:23:18;17.50;75.60
77985;DHT22;67177;47.240;-1.546;2023-05-07T07:25:44;17.50;75.40
77985;DHT22;67177;47.240;-1.546;2023-05-07T07:28:10;17.40;75.50
77985;DHT22;67177;47.240;-1.546;2023-05-07T07:30:36;17.40;75.30
77985;DHT22;67177;47.240;-1.546;2023-05-07T07:33:02;17.40;75.40
77985;DHT22;67177;47.240;-1.546;2023-05-07T07:35:31;17.30;75.20
77985;DHT22;67177;47.240;-1.546;2023-05-07T07:37:57;17.30;75.10
77985;DHT22;67177;47.240;-1.546;2023-05-07T07:40:23;17.40;75.30
77985;DHT22;67177;47.240;-1.546;2023-05-07T07:42:48;17.40;75.20
77985;DHT22;67177;47.240;-1.546;2023-05-07T07:45:14;17.50;75.20
77985;DHT22;67177;47.240;-1.546;2023-05-07T07:47:40;17.60;75.20
77985;DHT22;67177;47.240;-1.546;2023-05-07T07:50:07;17.60;75.10
77985;DHT22;67177;47.240;-1.546;2023-05-07T07:52:33;17.70;74.90
77985;DHT22;67177;47.240;-1.546;2023-05-07T07:54:58;17.80;74.70
77985;DHT22;67177;47.240;-1.546;2023-05-07T07:57:24;18.00;74.60
77985;DHT22;67177;47.240;-1.546;2023-05-07T07:59:50;18.10;74.40
77985;DHT22;67177;47.240;-1.546;2023-05-07T08:02:16;18.10;74.10
77985;DHT22;67177;47.240;-1.546;2023-05-07T08:04:42;18.10;74.20
77985;DHT22;67177;47.240;-1.546;2023-05-07T08:07:10;18.10;73.90
77985;DHT22;67177;47.240;-1.546;2023-05-07T08:09:39;18.20;73.70
77985;DHT22;67177;47.240;-1.546;2023-05-07T08:12:06;18.30;73.60
77985;DHT22;67177;47.240;-1.546;2023-05-07T08:14:32;18.60;73.20
77985;DHT22;67177;47.240;-1.546;2023-05-07T08:16:58;18.90;72.80
77985;DHT22;67177;47.240;-1.546;2023-05-07T08:19:23;18.80;72.90
77985;DHT22;67177;47.240;-1.546;2023-05-07T08:21:49;18.80;72.90
77985;DHT22;67177;47.240;-1.546;2023-05-07T08:24:16;18.90;72.70
77985;DHT22;67177;47.240;-1.546;2023-05-07T08:26:42;18.90;72.70
77985;DHT22;67177;47.240;-1.546;2023-05-07T08:29:08;18.80;72.90
77985;DHT22;67177;47.240;-1.546;2023-05-07T08:31:34;18.70;72.50
77985;DHT22;67177;47.240;-1.546;2023-05-07T08:33:59;18.70;72.50
77985;DHT22;67177;47.240;-1.546;2023-05-07T08:36:25;18.80;72.20
77985;DHT22;67177;47.240;-1.546;2023-05-07T08:38:51;19.20;71.60
77985;DHT22;67177;47.240;-1.546;2023-05-07T08:41:17;19.40;71.50
77985;DHT22;67177;47.240;-1.546;2023-05-07T08:43:48;19.60;71.10
77985;DHT22;67177;47.240;-1.546;2023-05-07T08:46:21;19.80;70.60
77985;DHT22;67177;47.240;-1.546;2023-05-07T08:48:51;20.00;70.10
77985;DHT22;67177;47.240;-1.546;2023-05-07T08:51:19;19.90;70.00
77985;DHT22;67177;47.240;-1.546;2023-05-07T08:53:46;20.00;69.80
77985;DHT22;67177;47.240;-1.546;2023-05-07T08:56:14;20.00;69.40
77985;DHT22;67177;47.240;-1.546;2023-05-07T08:58:42;20.10;69.30
77985;DHT22;67177;47.240;-1.546;2023-05-07T09:01:09;20.30;68.90
77985;DHT22;67177;47.240;-1.546;2023-05-07T09:03:37;20.50;68.40
77985;DHT22;67177;47.240;-1.546;2023-05-07T09:06:04;20.60;68.40
77985;DHT22;67177;47.240;-1.546;2023-05-07T09:08:31;20.80;67.60
77985;DHT22;67177;47.240;-1.546;2023-05-07T09:10:57;21.00;67.10
77985;DHT22;67177;47.240;-1.546;2023-05-07T09:13:23;21.10;66.50
77985;DHT22;67177;47.240;-1.546;2023-05-07T09:15:49;21.20;66.20
77985;DHT22;67177;47.240;-1.546;2023-05-07T09:18:14;21.20;66.20
77985;DHT22;67177;47.240;-1.546;2023-05-07T09:20:40;21.20;66.10
77985;DHT22;67177;47.240;-1.546;2023-05-07T09:23:07;21.30;66.10
77985;DHT22;67177;47.240;-1.546;2023-05-07T09:25:34;21.40;65.40
77985;DHT22;67177;47.240;-1.546;2023-05-07T09:28:01;21.30;64.70
77985;DHT22;67177;47.240;-1.546;2023-05-07T09:30:34;21.40;64.50
77985;DHT22;67177;47.240;-1.546;2023-05-07T09:33:01;21.30;64.50
77985;DHT22;67177;47.240;-1.546;2023-05-07T09:35:27;21.00;64.20
77985;DHT22;67177;47.240;-1.546;2023-05-07T09:37:55;20.70;64.40
77985;DHT22;67177;47.240;-1.546;2023-05-07T09:40:25;20.50;64.90
77985;DHT22;67177;47.240;-1.546;2023-05-07T09:42:51;20.40;65.20
77985;DHT22;67177;47.240;-1.546;2023-05-07T09:45:28;20.30;65.10
77985;DHT22;67177;47.240;-1.546;2023-05-07T09:47:55;20.40;65.20
77985;DHT22;67177;47.240;-1.546;2023-05-07T09:50:29;20.60;64.90
77985;DHT22;67177;47.240;-1.546;2023-05-07T09:52:56;20.80;64.70
77985;DHT22;67177;47.240;-1.546;2023-05-07T09:55:22;21.10;64.40
77985;DHT22;67177;47.240;-1.546;2023-05-07T09:57:53;21.20;64.40
77985;DHT22;67177;47.240;-1.546;2023-05-07T10:00:20;21.30;64.00
77985;DHT22;67177;47.240;-1.546;2023-05-07T10:02:51;21.30;63.80
77985;DHT22;67177;47.240;-1.546;2023-05-07T10:05:21;21.30;63.80
77985;DHT22;67177;47.240;-1.546;2023-05-07T10:07:48;21.30;63.80
77985;DHT22;67177;47.240;-1.546;2023-05-07T10:10:14;21.50;63.70
77985;DHT22;67177;47.240;-1.546;2023-05-07T10:12:41;21.70;63.80
77985;DHT22;67177;47.240;-1.546;2023-05-07T10:15:08;21.70;63.80
77985;DHT22;67177;47.240;-1.546;2023-05-07T10:17:40;21.80;63.60
77985;DHT22;67177;47.240;-1.546;2023-05-07T10:20:06;21.70;63.60
77985;DHT22;67177;47.240;-1.546;2023-05-07T10:22:38;21.60;63.10
77985;DHT22;67177;47.240;-1.546;2023-05-07T10:25:09;21.50;62.60
77985;DHT22;67177;47.240;-1.546;2023-05-07T10:27:40;21.30;62.20
77985;DHT22;67177;47.240;-1.546;2023-05-07T10:32:49;21.10;62.10
77985;DHT22;67177;47.240;-1.546;2023-05-07T10:35:29;21.00;62.60
77985;DHT22;67177;47.240;-1.546;2023-05-07T10:37:55;20.90;62.80
77985;DHT22;67177;47.240;-1.546;2023-05-07T10:40:21;20.90;62.80
77985;DHT22;67177;47.240;-1.546;2023-05-07T10:43:13;21.00;62.50
77985;DHT22;67177;47.240;-1.546;2023-05-07T10:45:38;21.20;62.50
77985;DHT22;67177;47.240;-1.546;2023-05-07T10:48:12;21.30;62.00
77985;DHT22;67177;47.240;-1.546;2023-05-07T10:50:39;21.50;61.80
77985;DHT22;67177;47.240;-1.546;2023-05-07T10:55:47;21.80;61.00
77985;DHT22;67177;47.240;-1.546;2023-05-07T11:00:48;21.80;61.30
77985;DHT22;67177;47.240;-1.546;2023-05-07T11:03:14;21.60;61.30
77985;DHT22;67177;47.240;-1.546;2023-05-07T11:05:42;21.40;61.40
77985;DHT22;67177;47.240;-1.546;2023-05-07T11:08:08;21.20;61.10
77985;DHT22;67177;47.240;-1.546;2023-05-07T11:10:54;21.10;60.90
77985;DHT22;67177;47.240;-1.546;2023-05-07T11:16:36;21.10;61.50
77985;DHT22;67177;47.240;-1.546;2023-05-07T11:19:03;21.30;61.40
77985;DHT22;67177;47.240;-1.546;2023-05-07T11:24:02;21.60;61.30
77985;DHT22;67177;47.240;-1.546;2023-05-07T11:26:31;21.80;61.30
77985;DHT22;67177;47.240;-1.546;2023-05-07T11:28:57;21.80;61.20
77985;DHT22;67177;47.240;-1.546;2023-05-07T11:31:25;21.60;61.50
77985;DHT22;67177;47.240;-1.546;2023-05-07T11:33:53;21.50;61.50
77985;DHT22;67177;47.240;-1.546;2023-05-07T11:36:19;21.40;60.90
77985;DHT22;67177;47.240;-1.546;2023-05-07T11:38:46;21.40;61.00
77985;DHT22;67177;47.240;-1.546;2023-05-07T11:41:12;21.50;60.60
77985;DHT22;67177;47.240;-1.546;2023-05-07T11:43:37;21.50;60.80
77985;DHT22;67177;47.240;-1.546;2023-05-07T11:46:09;21.50;60.90
77985;DHT22;67177;47.240;-1.546;2023-05-07T11:48:35;21.60;60.60
77985;DHT22;67177;47.240;-1.546;2023-05-07T11:51:02;21.70;60.40
77985;DHT22;67177;47.240;-1.546;2023-05-07T11:53:39;21.70;60.40
77985;DHT22;67177;47.240;-1.546;2023-05-07T11:56:13;21.60;60.10
77985;DHT22;67177;47.240;-1.546;2023-05-07T11:58:39;21.50;59.90
77985;DHT22;67177;47.240;-1.546;2023-05-07T12:01:08;21.30;60.10
77985;DHT22;67177;47.240;-1.546;2023-05-07T12:03:35;21.10;60.60
77985;DHT22;67177;47.240;-1.546;2023-05-07T12:06:02;21.10;61.20
77985;DHT22;67177;47.240;-1.546;2023-05-07T12:08:30;21.10;61.50
77985;DHT22;67177;47.240;-1.546;2023-05-07T12:10:56;21.10;62.00
77985;DHT22;67177;47.240;-1.546;2023-05-07T12:13:24;21.10;61.90
77985;DHT22;67177;47.240;-1.546;2023-05-07T12:15:54;21.00;61.80
77985;DHT22;67177;47.240;-1.546;2023-05-07T12:18:21;20.90;61.50
77985;DHT22;67177;47.240;-1.546;2023-05-07T12:20:47;20.80;61.90
77985;DHT22;67177;47.240;-1.546;2023-05-07T12:23:14;20.70;62.50
77985;DHT22;67177;47.240;-1.546;2023-05-07T12:25:41;20.60;63.00
77985;DHT22;67177;47.240;-1.546;2023-05-07T12:28:16;20.50;63.40
77985;DHT22;67177;47.240;-1.546;2023-05-07T12:30:46;20.50;63.50
77985;DHT22;67177;47.240;-1.546;2023-05-07T12:33:15;20.40;63.80
77985;DHT22;67177;47.240;-1.546;2023-05-07T12:35:42;20.40;63.80
77985;DHT22;67177;47.240;-1.546;2023-05-07T12:38:13;20.40;63.90
77985;DHT22;67177;47.240;-1.546;2023-05-07T12:40:45;20.40;64.00
77985;DHT22;67177;47.240;-1.546;2023-05-07T12:43:18;20.40;64.10
77985;DHT22;67177;47.240;-1.546;2023-05-07T12:45:46;20.50;63.70
77985;DHT22;67177;47.240;-1.546;2023-05-07T12:48:12;20.60;63.90
77985;DHT22;67177;47.240;-1.546;2023-05-07T12:50:38;20.80;63.90
77985;DHT22;67177;47.240;-1.546;2023-05-07T12:53:04;21.00;62.90
77985;DHT22;67177;47.240;-1.546;2023-05-07T12:55:45;21.20;62.60
77985;DHT22;67177;47.240;-1.546;2023-05-07T12:58:17;21.40;62.20
77985;DHT22;67177;47.240;-1.546;2023-05-07T13:00:44;21.60;62.00
77985;DHT22;67177;47.240;-1.546;2023-05-07T13:03:11;21.90;61.10
77985;DHT22;67177;47.240;-1.546;2023-05-07T13:05:36;22.20;61.00
77985;DHT22;67177;47.240;-1.546;2023-05-07T13:08:03;22.40;60.70
77985;DHT22;67177;47.240;-1.546;2023-05-07T13:10:29;22.50;59.70
77985;DHT22;67177;47.240;-1.546;2023-05-07T13:12:55;22.70;59.50
77985;DHT22;67177;47.240;-1.546;2023-05-07T13:15:21;23.00;58.20
77985;DHT22;67177;47.240;-1.546;2023-05-07T13:17:47;23.10;58.30
77985;DHT22;67177;47.240;-1.546;2023-05-07T13:20:13;23.30;56.80
77985;DHT22;67177;47.240;-1.546;2023-05-07T13:22:39;23.20;56.50
77985;DHT22;67177;47.240;-1.546;2023-05-07T13:25:05;23.20;56.80
77985;DHT22;67177;47.240;-1.546;2023-05-07T13:27:32;23.20;57.10
77985;DHT22;67177;47.240;-1.546;2023-05-07T13:29:57;23.10;57.10
77985;DHT22;67177;47.240;-1.546;2023-05-07T13:32:23;23.10;57.00
77985;DHT22;67177;47.240;-1.546;2023-05-07T13:34:48;23.10;56.80
77985;DHT22;67177;47.240;-1.546;2023-05-07T13:37:14;22.90;56.80
77985;DHT22;67177;47.240;-1.546;2023-05-07T13:39:40;22.80;56.70
77985;DHT22;67177;47.240;-1.546;2023-05-07T13:42:06;22.70;56.60
77985;DHT22;67177;47.240;-1.546;2023-05-07T13:44:32;22.70;56.60
77985;DHT22;67177;47.240;-1.546;2023-05-07T13:46:58;22.60;56.60
77985;DHT22;67177;47.240;-1.546;2023-05-07T13:49:23;22.60;56.60
77985;DHT22;67177;47.240;-1.546;2023-05-07T13:51:49;22.50;57.00
77985;DHT22;67177;47.240;-1.546;2023-05-07T13:54:15;22.50;56.40
77985;DHT22;67177;47.240;-1.546;2023-05-07T13:56:41;22.30;56.20
77985;DHT22;67177;47.240;-1.546;2023-05-07T13:59:07;22.10;56.50
77985;DHT22;67177;47.240;-1.546;2023-05-07T14:01:32;21.90;57.20
77985;DHT22;67177;47.240;-1.546;2023-05-07T14:03:58;21.80;57.70
77985;DHT22;67177;47.240;-1.546;2023-05-07T14:06:25;21.70;57.70
77985;DHT22;67177;47.240;-1.546;2023-05-07T14:08:51;21.50;58.20
77985;DHT22;67177;47.240;-1.546;2023-05-07T14:11:16;21.50;58.40
77985;DHT22;67177;47.240;-1.546;2023-05-07T14:13:42;21.60;58.10
77985;DHT22;67177;47.240;-1.546;2023-05-07T14:16:08;21.60;58.10
77985;DHT22;67177;47.240;-1.546;2023-05-07T14:18:33;21.50;58.20
77985;DHT22;67177;47.240;-1.546;2023-05-07T14:21:00;21.40;58.50
77985;DHT22;67177;47.240;-1.546;2023-05-07T14:23:26;21.30;58.60
77985;DHT22;67177;47.240;-1.546;2023-05-07T14:25:52;21.20;58.80
77985;DHT22;67177;47.240;-1.546;2023-05-07T14:28:18;21.10;58.80
77985;DHT22;67177;47.240;-1.546;2023-05-07T14:30:44;21.00;59.10
77985;DHT22;67177;47.240;-1.546;2023-05-07T14:33:10;21.10;58.90
77985;DHT22;67177;47.240;-1.546;2023-05-07T14:35:36;21.30;58.50
77985;DHT22;67177;47.240;-1.546;2023-05-07T14:38:01;21.40;58.60
77985;DHT22;67177;47.240;-1.546;2023-05-07T14:40:27;21.40;58.20
77985;DHT22;67177;47.240;-1.546;2023-05-07T14:42:52;21.30;57.90
77985;DHT22;67177;47.240;-1.546;2023-05-07T14:45:18;21.10;58.20
77985;DHT22;67177;47.240;-1.546;2023-05-07T14:47:44;21.10;58.10
77985;DHT22;67177;47.240;-1.546;2023-05-07T14:50:09;21.20;58.30
77985;DHT22;67177;47.240;-1.546;2023-05-07T14:52:35;21.20;58.40
77985;DHT22;67177;47.240;-1.546;2023-05-07T14:55:01;21.30;58.30
77985;DHT22;67177;47.240;-1.546;2023-05-07T14:57:27;21.40;58.40
77985;DHT22;67177;47.240;-1.546;2023-05-07T14:59:52;21.60;58.40
77985;DHT22;67177;47.240;-1.546;2023-05-07T15:02:18;21.70;58.30
77985;DHT22;67177;47.240;-1.546;2023-05-07T15:04:43;21.60;58.20
77985;DHT22;67177;47.240;-1.546;2023-05-07T15:07:13;21.50;58.00
77985;DHT22;67177;47.240;-1.546;2023-05-07T15:09:42;21.70;57.60
77985;DHT22;67177;47.240;-1.546;2023-05-07T15:12:08;21.70;57.60
77985;DHT22;67177;47.240;-1.546;2023-05-07T15:14:34;21.80;57.60
77985;DHT22;67177;47.240;-1.546;2023-05-07T15:17:00;21.80;57.60
77985;DHT22;67177;47.240;-1.546;2023-05-07T15:19:25;21.80;57.20
77985;DHT22;67177;47.240;-1.546;2023-05-07T15:21:55;21.80;57.20
77985;DHT22;67177;47.240;-1.546;2023-05-07T15:24:22;21.70;57.60
77985;DHT22;67177;47.240;-1.546;2023-05-07T15:26:48;21.70;57.70
77985;DHT22;67177;47.240;-1.546;2023-05-07T15:29:13;21.80;57.50